Time;durP1;ratioP1;P1;durP2;ratioP2;P2;SDS_P1;SDS_P2;PMS_P1;PMS_P2;Temp;Humidity;BMP_temperature;BMP_pressure;BME280_temperature;BME280_humidity;BME280_pressure;Samples;Min_cycle;Max_cycle;Signal;HPM_P1;HPM_P2
2021/06/04 00:00:14;;;;;;;12.43;7.60;;;13.20;99.90;;;;;;5055088;28;20047;-76
2021/06/04 00:02:40;;;;;;;9.45;5.88;;;13.10;99.90;;;;;;5054810;28;20123;-76
2021/06/04 00:05:08;;;;;;;10.65;6.07;;;13.10;99.90;;;;;;5055179;28;20045;-76
2021/06/04 00:07:35;;;;;;;14.00;8.25;;;13.10;99.90;;;;;;5055416;28;20082;-76
2021/06/04 00:10:01;;;;;;;10.50;7.53;;;13.10;99.90;;;;;;5055495;28;20072;-76
2021/06/04 00:12:27;;;;;;;13.18;7.15;;;13.00;99.90;;;;;;5054435;28;20041;-76
2021/06/04 00:14:53;;;;;;;13.07;6.43;;;13.00;99.90;;;;;;5037421;28;20091;-76
2021/06/04 00:17:23;;;;;;;9.32;6.75;;;13.00;99.90;;;;;;5054965;28;20091;-76
2021/06/04 00:19:51;;;;;;;11.20;5.85;;;13.00;99.90;;;;;;5055127;28;20044;-76
2021/06/04 00:22:24;;;;;;;8.02;6.97;;;13.00;99.90;;;;;;5054562;28;20064;-77
2021/06/04 00:24:53;;;;;;;11.45;6.38;;;12.90;99.90;;;;;;5055212;28;20044;-76
2021/06/04 00:27:21;;;;;;;10.13;6.35;;;12.90;99.90;;;;;;5054782;28;20044;-76
2021/06/04 00:29:47;;;;;;;10.55;5.93;;;12.90;99.90;;;;;;5054820;28;20499;-76
2021/06/04 00:32:16;;;;;;;10.43;5.85;;;12.80;99.90;;;;;;5054752;28;20032;-76
2021/06/04 00:34:42;;;;;;;8.45;6.45;;;12.80;99.90;;;;;;5054864;28;20093;-76
2021/06/04 00:37:09;;;;;;;9.52;6.40;;;12.80;99.90;;;;;;5054708;28;20060;-76
2021/06/04 00:39:39;;;;;;;8.63;6.65;;;12.80;99.90;;;;;;5054257;28;20119;-76
2021/06/04 00:42:24;;;;;;;11.02;5.93;;;12.90;99.90;;;;;;5054533;28;20609;-76
2021/06/04 00:44:52;;;;;;;7.57;5.57;;;12.80;99.90;;;;;;5037157;28;20040;-76
2021/06/04 00:47:18;;;;;;;9.88;6.18;;;12.80;99.90;;;;;;5054510;28;20069;-76
2021/06/04 00:49:44;;;;;;;15.45;6.30;;;12.70;99.90;;;;;;5054400;28;20488;-76
2021/06/04 00:52:10;;;;;;;10.18;6.35;;;12.70;99.90;;;;;;5054404;28;20029;-76
2021/06/04 00:54:36;;;;;;;9.25;6.88;;;12.70;99.90;;;;;;5054598;28;20037;-76
2021/06/04 00:57:04;;;;;;;7.88;5.85;;;12.60;99.90;;;;;;5053994;28;20123;-76
2021/06/04 00:59:34;;;;;;;6.90;5.90;;;12.60;99.90;;;;;;5054004;28;20123;-76
2021/06/04 01:02:00;;;;;;;9.75;6.40;;;12.60;99.90;;;;;;5054269;28;20102;-76
2021/06/04 01:04:27;;;;;;;7.00;5.68;;;12.50;99.90;;;;;;5054013;28;20044;-76
2021/06/04 01:06:59;;;;;;;7.68;5.53;;;12.50;99.90;;;;;;5054595;28;20081;-76
2021/06/04 01:09:56;;;;;;;8.82;5.60;;;12.50;99.90;;;;;;5054611;28;20036;-76
2021/06/04 01:12:44;;;;;;;9.23;6.38;;;12.50;99.90;;;;;;5054378;28;20071;-76
2021/06/04 01:15:10;;;;;;;10.43;6.43;;;12.40;99.90;;;;;;5054327;28;20511;-76
2021/06/04 01:17:44;;;;;;;9.38;6.63;;;12.40;99.90;;;;;;5054532;28;20037;-76
2021/06/04 01:20:18;;;;;;;8.50;6.18;;;12.40;99.90;;;;;;5054475;28;20057;-76
2021/06/04 01:23:12;;;;;;;12.68;6.07;;;12.40;99.90;;;;;;5055438;28;20035;-75
2021/06/04 01:25:49;;;;;;;15.35;7.63;;;12.50;99.90;;;;;;5058552;28;20087;-76
2021/06/04 01:28:26;;;;;;;8.95;6.75;;;12.30;99.90;;;;;;5058569;28;20500;-76
2021/06/04 01:31:10;;;;;;;8.52;5.75;;;12.30;99.90;;;;;;5058096;28;20384;-76
2021/06/04 01:34:04;;;;;;;8.07;5.68;;;12.40;99.90;;;;;;5058736;28;20421;-76
2021/06/04 01:36:37;;;;;;;6.72;5.45;;;12.30;99.90;;;;;;5058330;28;20128;-76
2021/06/04 01:39:19;;;;;;;7.90;5.25;;;12.20;99.90;;;;;;5058263;28;20037;-76
2021/06/04 01:41:48;;;;;;;9.90;6.50;;;12.30;99.90;;;;;;5058081;28;20060;-76
2021/06/04 01:44:29;;;;;;;7.15;6.25;;;12.20;99.90;;;;;;5058757;28;20041;-76
2021/06/04 01:47:02;;;;;;;7.70;6.05;;;12.20;99.90;;;;;;5057981;28;20047;-76
2021/06/04 01:49:35;;;;;;;9.40;5.85;;;12.20;99.90;;;;;;5058127;28;20040;-76
2021/06/04 01:52:12;;;;;;;9.73;5.80;;;12.30;99.90;;;;;;5040388;28;20103;-76
2021/06/04 01:54:53;;;;;;;8.85;6.00;;;12.40;99.90;;;;;;5058504;28;20098;-76
2021/06/04 01:57:25;;;;;;;11.43;6.00;;;12.60;99.90;;;;;;5058245;28;20130;-76
2021/06/04 01:59:52;;;;;;;9.73;6.97;;;12.70;99.90;;;;;;5057914;28;20041;-76
2021/06/04 02:02:25;;;;;;;12.93;8.05;;;12.80;99.90;;;;;;5057620;28;20029;-76
2021/06/04 02:04:53;;;;;;;12.43;7.47;;;12.80;99.90;;;;;;5057637;28;20527;-76
2021/06/04 02:07:27;;;;;;;12.43;7.38;;;12.80;99.90;;;;;;5057215;28;20049;-76
2021/06/04 02:09:53;;;;;;;12.20;7.30;;;12.90;99.90;;;;;;5056952;28;20029;-76
2021/06/04 02:12:21;;;;;;;7.80;6.57;;;13.00;99.90;;;;;;5057112;28;20099;-76
2021/06/04 02:14:51;;;;;;;11.30;7.57;;;13.10;99.90;;;;;;5057167;28;20045;-76
2021/06/04 02:17:34;;;;;;;13.00;7.57;;;13.00;99.90;;;;;;5057343;28;20098;-76
2021/06/04 02:20:14;;;;;;;11.02;6.60;;;13.10;99.90;;;;;;5038996;28;20587;-76
2021/06/04 02:22:57;;;;;;;7.15;6.45;;;13.20;99.90;;;;;;5057791;28;20048;-76
2021/06/04 02:25:55;;;;;;;11.70;6.60;;;13.10;99.90;;;;;;5057222;28;20033;-76
2021/06/04 02:28:39;;;;;;;8.07;6.47;;;13.20;99.90;;;;;;5028023;28;20041;-77
2021/06/04 02:31:28;;;;;;;9.48;5.68;;;13.20;99.90;;;;;;5057262;28;20044;-76
2021/06/04 02:34:05;;;;;;;8.35;6.05;;;13.20;99.90;;;;;;5056689;28;20041;-76
2021/06/04 02:36:36;;;;;;;9.75;5.90;;;13.20;99.90;;;;;;5056692;28;20040;-76
2021/06/04 02:39:25;;;;;;;9.45;5.53;;;13.30;99.90;;;;;;5057157;28;20132;-76
2021/06/04 02:42:06;;;;;;;8.52;5.93;;;13.40;99.90;;;;;;5048042;28;20052;-76
2021/06/04 02:44:39;;;;;;;8.35;6.32;;;13.50;99.90;;;;;;5056851;28;20163;-76
2021/06/04 02:47:14;;;;;;;11.85;7.50;;;13.40;99.90;;;;;;5056471;28;20071;-76
2021/06/04 02:49:41;;;;;;;12.10;7.78;;;13.30;99.90;;;;;;5056593;28;20484;-77
2021/06/04 02:52:24;;;;;;;11.30;7.60;;;13.30;99.90;;;;;;5056334;28;20037;-76
2021/06/04 02:54:50;;;;;;;9.85;7.63;;;13.40;99.90;;;;;;5056384;28;20047;-76
2021/06/04 02:57:19;;;;;;;14.10;7.25;;;13.40;99.90;;;;;;5056399;28;20113;-76
2021/06/04 02:59:47;;;;;;;9.02;6.40;;;13.40;99.90;;;;;;5056379;28;20045;-76
2021/06/04 03:02:18;;;;;;;10.45;6.82;;;13.50;99.90;;;;;;5056426;28;20037;-76
2021/06/04 03:04:54;;;;;;;10.52;6.57;;;13.60;99.90;;;;;;5056438;28;20037;-76
2021/06/04 03:07:27;;;;;;;9.10;6.53;;;13.50;99.90;;;;;;5056753;28;20559;-76
2021/06/04 03:09:55;;;;;;;9.05;6.20;;;13.70;99.90;;;;;;5056231;28;20043;-76
2021/06/04 03:12:28;;;;;;;8.77;5.70;;;13.80;99.90;;;;;;5056563;28;20099;-76
2021/06/04 03:14:56;;;;;;;7.47;6.18;;;13.80;99.90;;;;;;5057100;28;20037;-75
2021/06/04 03:17:26;;;;;;;11.13;5.75;;;13.80;99.90;;;;;;5056396;28;20060;-76
2021/06/04 03:19:51;;;;;;;11.13;6.05;;;13.80;99.90;;;;;;5038360;28;20392;-76
2021/06/04 03:22:30;;;;;;;9.07;6.47;;;13.80;99.90;;;;;;5056055;28;20041;-76
2021/06/04 03:25:00;;;;;;;10.65;6.88;;;13.80;99.90;;;;;;5056678;28;20047;-76
2021/06/04 03:27:26;;;;;;;10.93;7.45;;;13.70;99.90;;;;;;5056291;28;20045;-76
2021/06/04 03:29:52;;;;;;;7.30;6.60;;;13.70;99.90;;;;;;5055896;28;20487;-76
2021/06/04 03:32:19;;;;;;;11.77;6.18;;;13.70;99.90;;;;;;5056138;28;20511;-76
2021/06/04 03:34:47;;;;;;;8.52;6.28;;;13.80;99.90;;;;;;5055886;28;20123;-76
2021/06/04 03:37:15;;;;;;;10.23;6.25;;;13.80;99.90;;;;;;5055765;28;20041;-76
2021/06/04 03:39:43;;;;;;;9.02;5.85;;;13.90;99.90;;;;;;5055934;28;20036;-76
2021/06/04 03:42:30;;;;;;;7.57;5.57;;;13.90;99.90;;;;;;5055519;28;20477;-76
2021/06/04 03:44:56;;;;;;;10.10;6.18;;;14.00;99.90;;;;;;5055884;28;20074;-76
2021/06/04 03:47:22;;;;;;;11.32;6.10;;;14.00;99.90;;;;;;5054626;28;20045;-76
2021/06/04 03:49:49;;;;;;;12.07;6.03;;;14.00;99.90;;;;;;5055211;28;20052;-76
2021/06/04 03:52:20;;;;;;;11.85;6.00;;;14.00;99.90;;;;;;5055488;28;20046;-76
2021/06/04 03:54:48;;;;;;;9.98;6.00;;;14.00;99.90;;;;;;5055464;28;20040;-76
2021/06/04 03:57:18;;;;;;;7.72;5.47;;;14.00;99.90;;;;;;5055226;28;20590;-76
2021/06/04 03:59:44;;;;;;;9.03;6.33;;;14.00;99.90;;;;;;5054953;28;20048;-76
2021/06/04 04:02:14;;;;;;;11.25;6.68;;;14.00;99.90;;;;;;5055140;28;20484;-76
2021/06/04 04:04:40;;;;;;;9.73;7.63;;;14.00;99.90;;;;;;5055841;28;20116;-76
2021/06/04 04:07:07;;;;;;;10.85;6.15;;;14.00;99.90;;;;;;5054712;28;20140;-76
2021/06/04 04:09:33;;;;;;;10.02;6.78;;;14.00;99.90;;;;;;5054882;28;20033;-76
2021/06/04 04:11:59;;;;;;;7.70;5.65;;;14.00;99.90;;;;;;5054631;28;20408;-76
2021/06/04 04:14:27;;;;;;;9.77;7.13;;;14.10;99.90;;;;;;5036863;28;20032;-76
2021/06/04 04:16:53;;;;;;;11.35;6.45;;;14.10;99.90;;;;;;5054717;28;20120;-76
2021/06/04 04:19:22;;;;;;;10.05;6.50;;;14.10;99.90;;;;;;5055091;28;20048;-76
2021/06/04 04:21:50;;;;;;;11.45;7.00;;;14.10;99.90;;;;;;5036918;28;20077;-76
2021/06/04 04:24:23;;;;;;;11.30;7.55;;;14.10;99.90;;;;;;5054538;28;20037;-76
2021/06/04 04:26:49;;;;;;;13.00;8.23;;;14.10;99.90;;;;;;5036378;28;20040;-76
2021/06/04 04:29:15;;;;;;;14.90;8.70;;;14.10;99.90;;;;;;5054613;28;20044;-76
2021/06/04 04:31:45;;;;;;;12.85;8.65;;;14.00;99.90;;;;;;5054747;28;20066;-76
2021/06/04 04:34:11;;;;;;;13.38;8.43;;;14.00;99.90;;;;;;5036820;28;20029;-76
2021/06/04 04:36:44;;;;;;;13.43;8.18;;;14.00;99.90;;;;;;5054480;28;20530;-77
2021/06/04 04:39:17;;;;;;;10.90;8.13;;;14.10;99.90;;;;;;5054390;28;20128;-78
2021/06/04 04:41:43;;;;;;;14.25;8.00;;;14.20;99.90;;;;;;5053762;28;20049;-75
2021/06/04 04:44:10;;;;;;;11.30;7.75;;;14.20;99.90;;;;;;5053573;28;20129;-76
2021/06/04 04:46:36;;;;;;;11.02;7.13;;;14.20;99.90;;;;;;5054648;28;20041;-76
2021/06/04 04:49:03;;;;;;;8.00;6.63;;;14.30;99.90;;;;;;5054228;28;20037;-76
2021/06/04 04:51:30;;;;;;;8.10;7.30;;;14.30;99.90;;;;;;5036592;28;20076;-76
2021/06/04 04:53:56;;;;;;;13.57;8.13;;;14.30;99.90;;;;;;5054139;28;20041;-76
2021/06/04 04:56:23;;;;;;;12.10;6.85;;;14.40;99.90;;;;;;5054667;28;20086;-76
2021/06/04 04:58:49;;;;;;;10.07;6.65;;;14.40;99.90;;;;;;5054000;28;20029;-76
2021/06/04 05:01:16;;;;;;;12.10;6.80;;;14.40;99.90;;;;;;5054324;28;20051;-76
2021/06/04 05:03:42;;;;;;;9.93;6.50;;;14.30;99.90;;;;;;5054518;28;20033;-76
2021/06/04 05:06:09;;;;;;;8.55;7.10;;;14.30;99.90;;;;;;5053856;28;20049;-76
2021/06/04 05:08:35;;;;;;;8.15;7.28;;;14.40;99.90;;;;;;5054352;28;20064;-76
2021/06/04 05:11:02;;;;;;;10.70;7.32;;;14.40;99.90;;;;;;5054129;28;20047;-76
2021/06/04 05:13:28;;;;;;;11.70;7.35;;;14.40;99.90;;;;;;5054007;28;20112;-76
2021/06/04 05:15:54;;;;;;;11.82;7.28;;;14.50;99.90;;;;;;5053876;28;20573;-76
2021/06/04 05:18:20;;;;;;;9.52;7.05;;;14.60;99.90;;;;;;5054234;28;20032;-76
2021/06/04 05:20:47;;;;;;;11.68;7.68;;;14.60;99.90;;;;;;5053828;28;20488;-76
2021/06/04 05:23:16;;;;;;;11.55;6.63;;;14.60;99.90;;;;;;5054203;28;20033;-76
2021/06/04 05:25:45;;;;;;;7.40;6.35;;;14.60;99.90;;;;;;5054222;28;20114;-76
2021/06/04 05:28:14;;;;;;;7.30;6.45;;;14.60;99.90;;;;;;5054360;28;20041;-76
2021/06/04 05:30:43;;;;;;;7.93;6.47;;;14.70;99.90;;;;;;5054108;28;20045;-76
2021/06/04 05:33:12;;;;;;;7.15;5.97;;;14.70;99.90;;;;;;5054078;28;20044;-76
2021/06/04 05:35:38;;;;;;;12.02;6.97;;;14.70;99.90;;;;;;5054324;28;20088;-76
2021/06/04 05:38:05;;;;;;;9.07;6.32;;;14.80;99.90;;;;;;5052311;28;20040;-76
2021/06/04 05:40:35;;;;;;;9.35;6.50;;;14.90;99.90;;;;;;5053762;28;20053;-76
2021/06/04 05:43:03;;;;;;;9.60;6.90;;;14.90;99.90;;;;;;5054060;28;20091;-76
2021/06/04 05:45:31;;;;;;;11.77;6.82;;;15.00;99.90;;;;;;5054261;28;20044;-76
2021/06/04 05:47:57;;;;;;;8.05;7.15;;;15.00;99.90;;;;;;5054221;28;20047;-76
2021/06/04 05:50:28;;;;;;;8.25;6.45;;;15.10;99.90;;;;;;5053616;28;20482;-76
2021/06/04 05:52:54;;;;;;;12.13;8.60;;;15.10;99.90;;;;;;5054270;28;20040;-76
2021/06/04 05:55:25;;;;;;;8.00;6.80;;;15.30;99.90;;;;;;5053732;28;20500;-76
2021/06/04 05:57:51;;;;;;;8.93;6.22;;;15.40;99.90;;;;;;5052774;28;20595;-76
2021/06/04 06:00:35;;;;;;;11.38;6.18;;;15.40;99.90;;;;;;5051473;28;20143;-76
2021/06/04 06:03:05;;;;;;;8.75;7.10;;;15.30;99.90;;;;;;5051973;28;20710;-76
2021/06/04 06:05:31;;;;;;;11.43;7.38;;;15.20;99.90;;;;;;5049489;28;20504;-76
2021/06/04 06:07:57;;;;;;;7.97;6.55;;;15.30;99.90;;;;;;5050462;28;20102;-76
2021/06/04 06:10:24;;;;;;;13.32;7.47;;;15.50;99.90;;;;;;5053256;28;20053;-76
2021/06/04 06:12:53;;;;;;;7.82;6.75;;;15.70;99.90;;;;;;5057318;28;20037;-76
2021/06/04 06:15:21;;;;;;;11.30;6.10;;;15.80;99.90;;;;;;5056014;28;20032;-76
2021/06/04 06:17:47;;;;;;;10.57;5.60;;;15.80;99.90;;;;;;5068555;28;20040;-76
2021/06/04 06:20:16;;;;;;;7.53;5.88;;;15.90;99.90;;;;;;5077094;28;20051;-76
2021/06/04 06:22:42;;;;;;;8.27;5.80;;;15.90;99.90;;;;;;5076965;28;20068;-76
2021/06/04 06:25:14;;;;;;;11.35;6.10;;;16.00;99.90;;;;;;5076669;28;20098;-76
2021/06/04 06:27:40;;;;;;;8.75;5.88;;;16.10;99.90;;;;;;5077037;28;20068;-76
2021/06/04 06:30:08;;;;;;;8.02;5.80;;;16.10;99.90;;;;;;5077025;28;20044;-76
2021/06/04 06:32:34;;;;;;;9.70;6.43;;;16.00;99.90;;;;;;5076920;28;20045;-76
2021/06/04 06:35:01;;;;;;;9.52;6.50;;;15.90;99.90;;;;;;5077005;28;20449;-76
2021/06/04 06:37:27;;;;;;;10.60;6.70;;;15.80;99.90;;;;;;5073706;28;20090;-76
2021/06/04 06:39:53;;;;;;;14.68;6.75;;;15.80;99.90;;;;;;5075836;28;20071;-76
2021/06/04 06:42:19;;;;;;;9.25;7.45;;;15.70;99.90;;;;;;5076338;28;20487;-75
2021/06/04 06:44:45;;;;;;;10.25;7.53;;;15.70;99.90;;;;;;5074280;28;20147;-76
2021/06/04 06:47:11;;;;;;;10.93;7.10;;;15.70;99.90;;;;;;5074621;28;20531;-76
2021/06/04 06:49:37;;;;;;;14.82;6.45;;;15.60;99.90;;;;;;5074439;28;20093;-76
2021/06/04 06:52:03;;;;;;;18.98;7.85;;;15.70;99.90;;;;;;5074829;28;20123;-76
2021/06/04 06:54:32;;;;;;;9.68;6.72;;;15.70;99.90;;;;;;5074828;28;20048;-75
2021/06/04 06:56:59;;;;;;;8.88;7.78;;;15.80;99.90;;;;;;5074419;28;20036;-76
2021/06/04 06:59:29;;;;;;;11.02;8.48;;;15.90;99.90;;;;;;5074422;28;20040;-75
2021/06/04 07:01:57;;;;;;;10.45;8.05;;;15.90;99.90;;;;;;5074869;28;20048;-76
2021/06/04 07:04:24;;;;;;;11.18;8.43;;;15.90;99.90;;;;;;5076389;28;20040;-76
2021/06/04 07:06:51;;;;;;;16.13;8.23;;;15.80;99.90;;;;;;5076540;28;20522;-76
2021/06/04 07:09:18;;;;;;;11.15;8.45;;;15.90;99.90;;;;;;5076374;28;20087;-76
2021/06/04 07:11:50;;;;;;;11.63;8.15;;;15.90;99.90;;;;;;5076329;28;20113;-76
2021/06/04 07:14:17;;;;;;;9.60;8.48;;;16.10;99.90;;;;;;5075456;28;20033;-76
2021/06/04 07:16:43;;;;;;;10.32;9.32;;;16.10;99.90;;;;;;5072763;28;20053;-77
2021/06/04 07:19:09;;;;;;;10.50;9.38;;;16.20;99.90;;;;;;5072868;28;20056;-76
2021/06/04 07:21:38;;;;;;;9.98;8.73;;;16.10;99.90;;;;;;5073132;28;20099;-76
2021/06/04 07:24:05;;;;;;;9.57;8.20;;;16.10;99.90;;;;;;5074386;28;20063;-76
2021/06/04 07:26:31;;;;;;;11.30;8.38;;;16.10;99.90;;;;;;5074054;28;20040;-76
2021/06/04 07:29:01;;;;;;;10.98;7.85;;;16.20;99.90;;;;;;5074113;28;20110;-76
2021/06/04 07:31:28;;;;;;;10.80;7.50;;;16.30;99.90;;;;;;5074309;28;20120;-76
2021/06/04 07:33:56;;;;;;;11.00;8.10;;;16.50;99.90;;;;;;5074278;28;20040;-76
2021/06/04 07:36:26;;;;;;;10.18;8.07;;;16.60;99.90;;;;;;5073865;28;20043;-76
2021/06/04 07:38:53;;;;;;;10.77;7.63;;;16.50;99.90;;;;;;5073150;28;20082;-76
2021/06/04 07:41:19;;;;;;;9.00;8.10;;;16.20;99.90;;;;;;5074087;28;20079;-76
2021/06/04 07:43:47;;;;;;;9.85;8.27;;;16.40;99.90;;;;;;5074734;28;20044;-76
2021/06/04 07:46:15;;;;;;;8.90;7.63;;;16.50;99.90;;;;;;5075275;28;20051;-76
2021/06/04 07:48:42;;;;;;;8.73;7.85;;;16.60;99.90;;;;;;5074993;28;20114;-76
2021/06/04 07:51:11;;;;;;;11.15;7.20;;;16.70;99.90;;;;;;5073576;28;20396;-76
2021/06/04 07:53:39;;;;;;;9.18;7.80;;;16.80;99.90;;;;;;5073857;28;20089;-77
2021/06/04 07:56:07;;;;;;;12.55;8.10;;;16.90;99.90;;;;;;5073430;28;20139;-77
2021/06/04 07:58:34;;;;;;;12.55;8.13;;;16.90;99.90;;;;;;5073530;28;20040;-76
2021/06/04 08:01:02;;;;;;;9.60;8.20;;;17.10;99.90;;;;;;5074549;28;20044;-76
2021/06/04 08:03:29;;;;;;;18.15;7.72;;;16.90;99.90;;;;;;5073639;28;20479;-76
2021/06/04 08:05:56;;;;;;;13.88;8.32;;;16.90;99.90;;;;;;5072145;28;20200;-77
2021/06/04 08:08:23;;;;;;;11.52;8.82;;;16.90;99.90;;;;;;5074043;28;20063;-76
2021/06/04 08:10:50;;;;;;;13.27;9.38;;;16.70;99.90;;;;;;5073269;28;20522;-76
2021/06/04 08:13:19;;;;;;;11.38;8.35;;;16.90;99.90;;;;;;5074758;28;20043;-76
2021/06/04 08:16:05;;;;;;;14.43;9.15;;;16.70;99.90;;;;;;5075031;28;20111;-76
2021/06/04 08:18:33;;;;;;;11.05;8.73;;;16.90;99.90;;;;;;5074889;28;20112;-76
2021/06/04 08:21:00;;;;;;;15.70;9.05;;;17.00;99.90;;;;;;5074566;28;20079;-76
2021/06/04 08:23:32;;;;;;;10.13;8.18;;;17.10;99.90;;;;;;5074910;28;20031;-76
2021/06/04 08:26:00;;;;;;;12.27;7.28;;;17.20;99.90;;;;;;5074922;28;20044;-76
2021/06/04 08:28:28;;;;;;;12.35;7.95;;;17.30;99.90;;;;;;5074747;28;20169;-76
2021/06/04 08:30:54;;;;;;;8.00;7.15;;;17.40;99.90;;;;;;5074515;28;20045;-76
2021/06/04 08:33:23;;;;;;;9.55;6.70;;;17.10;99.90;;;;;;5073950;28;20063;-76
2021/06/04 08:35:49;;;;;;;7.82;6.72;;;17.00;99.90;;;;;;5074995;28;20048;-76
2021/06/04 08:38:15;;;;;;;11.27;7.43;;;16.80;99.90;;;;;;5074698;28;20491;-76
2021/06/04 08:40:42;;;;;;;8.40;7.45;;;16.90;99.90;;;;;;5074445;28;20054;-76
2021/06/04 08:43:24;;;;;;;8.77;7.28;;;17.00;99.90;;;;;;5075213;28;20040;-76
2021/06/04 08:46:16;;;;;;;10.27;7.32;;;17.20;99.90;;;;;;5073998;28;20067;-76
2021/06/04 08:49:04;;;;;;;9.93;6.97;;;17.90;99.90;;;;;;5074634;28;20036;-76
2021/06/04 08:51:38;;;;;;;10.27;7.65;;;18.10;99.90;;;;;;5074430;28;20047;-75
2021/06/04 08:54:30;;;;;;;12.13;8.20;;;17.90;99.90;;;;;;5074825;28;20037;-76
2021/06/04 08:57:12;;;;;;;9.68;7.60;;;17.90;99.90;;;;;;5073928;28;20067;-76
2021/06/04 08:59:41;;;;;;;10.05;7.60;;;17.60;99.90;;;;;;5074175;28;20495;-76
2021/06/04 09:02:20;;;;;;;14.30;9.05;;;17.40;99.90;;;;;;5074437;28;20045;-75
2021/06/04 09:05:02;;;;;;;12.98;9.25;;;17.20;99.90;;;;;;5073969;28;20492;-76
2021/06/04 09:07:39;;;;;;;9.82;8.82;;;17.20;99.90;;;;;;5034476;28;20501;-76
2021/06/04 09:10:11;;;;;;;17.00;9.15;;;17.10;99.90;;;;;;5034535;28;20075;-76
2021/06/04 09:12:51;;;;;;;12.23;10.13;;;17.20;99.90;;;;;;5034472;28;20038;-76
2021/06/04 09:15:25;;;;;;;11.38;10.20;;;17.10;99.90;;;;;;5034552;28;20037;-76
2021/06/04 09:18:10;;;;;;;11.80;7.60;;;17.20;99.90;;;;;;5034391;28;20116;-76
2021/06/04 09:20:53;;;;;;;13.82;7.20;;;17.60;99.90;;;;;;5034257;28;20176;-76
2021/06/04 09:23:26;;;;;;;12.60;8.38;;;18.10;99.90;;;;;;5034631;28;20091;-76
2021/06/04 09:25:52;;;;;;;9.35;7.85;;;18.40;99.90;;;;;;5033975;28;20156;-76
2021/06/04 09:28:18;;;;;;;11.68;7.43;;;18.50;99.90;;;;;;5034507;28;20045;-76
2021/06/04 09:30:58;;;;;;;7.90;7.10;;;18.50;99.90;;;;;;5034273;28;20374;-76
2021/06/04 09:33:26;;;;;;;10.73;7.50;;;18.60;99.90;;;;;;5033973;28;20405;-76
2021/06/04 09:36:06;;;;;;;9.02;6.82;;;18.90;99.90;;;;;;5034435;28;20025;-76
2021/06/04 09:38:54;;;;;;;12.60;6.37;;;19.10;99.90;;;;;;5033854;28;20374;-76
2021/06/04 09:41:34;;;;;;;9.98;6.43;;;19.60;99.90;;;;;;5033923;28;20048;-76
2021/06/04 09:44:21;;;;;;;15.05;9.50;;;19.80;99.90;;;;;;5034746;28;20034;-76
2021/06/04 09:46:58;;;;;;;11.48;7.00;;;19.50;99.90;;;;;;5038086;28;20038;-76
2021/06/04 09:49:35;;;;;;;16.15;9.27;;;19.80;99.90;;;;;;5038440;28;20091;-76
2021/06/04 09:52:34;;;;;;;18.23;11.93;;;20.20;99.90;;;;;;5038020;28;20065;-74
2021/06/04 09:55:03;;;;;;;22.38;14.23;;;20.30;99.90;;;;;;5037647;28;20091;-75
2021/06/04 09:57:29;;;;;;;11.95;7.10;;;20.60;99.90;;;;;;5037487;28;20068;-77
2021/06/04 10:00:18;;;;;;;8.45;5.38;;;20.50;99.90;;;;;;5037662;28;20504;-76
2021/06/04 10:02:45;;;;;;;9.95;5.90;;;20.30;99.90;;;;;;5037300;28;20569;-76
2021/06/04 10:05:13;;;;;;;10.52;5.95;;;20.20;99.90;;;;;;5041512;28;20042;-77
2021/06/04 10:07:39;;;;;;;9.35;6.47;;;20.70;99.90;;;;;;5078135;28;20043;-76
2021/06/04 10:10:27;;;;;;;8.70;5.18;;;20.90;99.90;;;;;;5077281;28;20041;-76
2021/06/04 10:12:58;;;;;;;7.65;5.65;;;21.40;99.90;;;;;;5078048;28;20475;-76
2021/06/04 10:15:24;;;;;;;8.07;4.80;;;21.70;99.90;;;;;;5077686;28;20036;-76
2021/06/04 10:20:42;;;;;;;10.73;5.03;;;21.50;99.90;;;;;;5077474;28;20041;-76
2021/06/04 10:23:27;;;;;;;10.45;5.35;;;20.60;99.90;;;;;;5077710;28;20480;-77
2021/06/04 10:26:03;;;;;;;6.03;4.47;;;20.30;99.90;;;;;;5077243;28;20123;-76
2021/06/04 10:28:38;;;;;;;9.18;5.70;;;20.40;99.90;;;;;;5077465;28;20499;-77
2021/06/04 10:31:13;;;;;;;9.82;5.00;;;21.00;99.90;;;;;;5077457;28;20062;-78
2021/06/04 10:33:58;;;;;;;7.93;5.57;;;21.60;99.90;;;;;;5053330;28;20040;-77
2021/06/04 10:36:29;;;;;;;14.07;5.18;;;21.70;99.90;;;;;;5056705;28;20033;-77
2021/06/04 10:39:13;;;;;;;9.50;4.53;;;21.70;99.90;;;;;;5056081;28;20087;-77
2021/06/04 10:42:15;;;;;;;9.63;5.00;;;21.30;99.90;;;;;;5055075;28;20056;-77
2021/06/04 10:44:46;;;;;;;9.27;5.25;;;20.90;99.90;;;;;;5055620;28;20569;-77
2021/06/04 10:47:45;;;;;;;8.50;4.65;;;20.90;99.90;;;;;;5056502;28;20432;-76
2021/06/04 10:50:36;;;;;;;7.03;5.45;;;20.70;99.90;;;;;;5055440;28;20041;-77
2021/06/04 10:53:24;;;;;;;8.57;5.03;;;20.90;99.90;;;;;;5056286;28;20060;-77
2021/06/04 10:56:29;;;;;;;11.70;5.28;;;20.80;99.90;;;;;;5054728;28;20492;-77
2021/06/04 10:59:18;;;;;;;7.25;5.28;;;20.70;99.90;;;;;;5056278;28;20033;-77
2021/06/04 11:02:02;;;;;;;10.35;5.15;;;20.70;99.90;;;;;;5056246;28;20129;-77
2021/06/04 11:04:37;;;;;;;6.13;4.55;;;20.80;99.90;;;;;;5054487;28;20033;-77
2021/06/04 11:07:34;;;;;;;9.55;4.50;;;21.10;99.90;;;;;;5053645;28;20053;-77
2021/06/04 11:10:04;;;;;;;6.53;4.80;;;21.30;99.90;;;;;;5022895;28;20041;-77
2021/06/04 11:12:51;;;;;;;6.78;4.78;;;21.00;99.90;;;;;;5052739;28;20045;-76
2021/06/04 11:15:55;;;;;;;8.57;4.85;;;20.60;99.90;;;;;;5055481;28;20488;-76
2021/06/04 11:18:42;;;;;;;7.53;4.75;;;21.10;99.90;;;;;;5021870;28;20037;-77
2021/06/04 11:21:40;;;;;;;8.15;4.70;;;22.10;99.90;;;;;;5055720;28;20588;-76
2021/06/04 11:24:31;;;;;;;7.65;4.28;;;22.50;99.90;;;;;;5055826;28;20041;-76
2021/06/04 11:26:57;;;;;;;4.50;3.60;;;22.90;99.10;;;;;;5055708;28;20040;-76
2021/06/04 11:29:32;;;;;;;6.93;3.97;;;22.70;98.30;;;;;;5055971;28;20041;-76
2021/06/04 11:32:17;;;;;;;6.57;4.30;;;22.40;99.90;;;;;;5056033;28;20049;-76
2021/06/04 11:34:59;;;;;;;5.95;4.00;;;22.10;99.90;;;;;;5055946;28;20041;-77
2021/06/04 11:37:40;;;;;;;7.45;4.10;;;22.30;99.90;;;;;;5054625;28;20442;-77
2021/06/04 11:40:21;;;;;;;7.97;4.28;;;22.00;99.90;;;;;;5056147;28;20032;-77
2021/06/04 11:42:54;;;;;;;7.35;4.38;;;21.70;99.90;;;;;;5055857;28;20098;-77
2021/06/04 11:45:25;;;;;;;9.52;5.15;;;21.70;99.90;;;;;;5055376;28;20037;-77
2021/06/04 11:47:52;;;;;;;6.78;4.32;;;21.80;99.90;;;;;;5055882;28;20064;-77
2021/06/04 11:50:36;;;;;;;6.75;4.35;;;22.00;99.90;;;;;;5055589;28;20056;-77
2021/06/04 11:53:24;;;;;;;13.00;4.88;;;22.30;99.90;;;;;;5055564;28;20534;-76
2021/06/04 11:55:54;;;;;;;9.20;4.22;;;22.20;99.90;;;;;;5055225;28;20049;-77
2021/06/04 11:58:29;;;;;;;7.78;3.85;;;22.10;99.90;;;;;;5055338;28;20068;-76
2021/06/04 12:01:21;;;;;;;5.25;3.70;;;22.40;99.90;;;;;;5055793;28;20079;-77
2021/06/04 12:04:03;;;;;;;7.95;3.78;;;23.10;97.10;;;;;;5055830;28;20040;-77
2021/06/04 12:06:43;;;;;;;5.18;3.58;;;23.00;95.80;;;;;;5055022;28;20135;-77
2021/06/04 12:09:30;;;;;;;4.82;3.53;;;22.80;95.70;;;;;;5054128;28;20068;-76
2021/06/04 12:12:25;;;;;;;8.23;4.15;;;22.50;97.60;;;;;;5054740;28;20526;-76
2021/06/04 12:14:57;;;;;;;7.65;3.90;;;22.20;99.90;;;;;;5055161;28;20053;-76
2021/06/04 12:17:35;;;;;;;7.82;4.00;;;22.30;98.70;;;;;;5054788;28;20087;-77
2021/06/04 12:20:22;;;;;;;7.53;4.03;;;22.50;99.30;;;;;;5054995;28;20033;-76
2021/06/04 12:22:52;;;;;;;5.25;4.00;;;22.40;99.90;;;;;;5055305;28;20103;-76
2021/06/04 12:25:37;;;;;;;;;;;22.60;99.90;;;;;;5055388;28;20064;-76
2021/06/04 12:28:10;;;;;;;4.80;3.17;;;22.60;98.10;;;;;;5054643;28;19909;-77
2021/06/04 12:31:10;;;;;;;5.70;3.72;;;22.80;96.40;;;;;;5054524;28;20049;-76
2021/06/04 12:33:45;;;;;;;4.03;2.92;;;23.50;94.60;;;;;;5022171;28;20569;-77
2021/06/04 12:36:29;;;;;;;6.32;2.80;;;24.10;90.90;;;;;;5054971;28;20079;-77
2021/06/04 12:39:32;;;;;;;8.00;2.80;;;24.10;88.60;;;;;;5054470;28;20124;-77
2021/06/04 12:42:04;;;;;;;7.00;3.13;;;24.00;85.90;;;;;;5054150;28;20041;-77
2021/06/04 12:44:30;;;;;;;5.82;3.38;;;23.20;88.50;;;;;;5054633;28;20037;-76
2021/06/04 12:46:57;;;;;;;4.80;2.80;;;22.70;89.50;;;;;;5054582;28;20041;-76
2021/06/04 12:49:23;;;;;;;6.75;2.80;;;22.60;90.90;;;;;;5054566;28;20063;-76
2021/06/04 12:51:53;;;;;;;5.65;2.90;;;22.60;91.80;;;;;;5054252;28;20155;-76
2021/06/04 12:54:25;;;;;;;4.32;2.50;;;22.70;90.60;;;;;;5054522;28;20063;-77
2021/06/04 12:56:53;;;;;;;6.05;2.85;;;22.90;90.30;;;;;;5054156;28;20416;-76
2021/06/04 12:59:28;;;;;;;4.72;2.63;;;23.20;90.20;;;;;;5054421;28;20492;-77
2021/06/04 13:02:00;;;;;;;6.18;2.63;;;23.20;88.50;;;;;;5054069;28;20404;-77
2021/06/04 13:04:34;;;;;;;6.97;2.92;;;23.20;87.90;;;;;;5054434;28;20053;-77
2021/06/04 13:07:02;;;;;;;5.72;2.25;;;23.30;83.50;;;;;;5053953;28;20060;-77
2021/06/04 13:09:34;;;;;;;7.68;2.83;;;22.90;82.00;;;;;;5054078;28;20044;-77
2021/06/04 13:12:20;;;;;;;4.18;2.50;;;22.90;83.10;;;;;;5054665;28;20048;-76
2021/06/04 13:14:48;;;;;;;3.53;2.05;;;23.20;82.20;;;;;;5053616;28;20453;-76